Time;durP1;ratioP1;P1;durP2;ratioP2;P2;SDS_P1;SDS_P2;PMS_P1;PMS_P2;Temp;Humidity;BMP_temperature;BMP_pressure;BME280_temperature;BME280_humidity;BME280_pressure;Samples;Min_cycle;Max_cycle;Signal;HPM_P1;HPM_P2
2023/12/12 00:00:03;;;;;;;0.90;0.77;;;7.20;99.90;;;;;;5037440;28;20447;-85
2023/12/12 00:02:31;;;;;;;0.53;0.53;;;7.20;99.90;;;;;;5036646;28;20533;-85
2023/12/12 00:04:59;;;;;;;0.37;0.30;;;7.20;99.90;;;;;;5036348;28;20451;-85
2023/12/12 00:07:26;;;;;;;0.77;0.40;;;7.20;99.90;;;;;;5036253;28;20982;-85
2023/12/12 00:09:52;;;;;;;4.87;0.73;;;7.20;99.90;;;;;;5036380;28;20449;-85
2023/12/12 00:12:19;;;;;;;0.80;0.40;;;7.20;99.90;;;;;;5035947;28;20563;-85
2023/12/12 00:14:46;;;;;;;0.50;0.40;;;7.30;99.90;;;;;;5036097;28;20496;-85
2023/12/12 00:17:13;;;;;;;2.87;0.40;;;7.30;99.90;;;;;;5036064;28;20462;-84
2023/12/12 00:19:43;;;;;;;0.40;0.40;;;7.30;99.90;;;;;;5035979;28;20454;-85
2023/12/12 00:22:10;;;;;;;1.00;0.50;;;7.30;99.90;;;;;;5036077;28;20488;-84
2023/12/12 00:24:37;;;;;;;0.70;0.60;;;7.30;99.90;;;;;;5035989;28;20788;-84
2023/12/12 00:27:04;;;;;;;0.87;0.50;;;7.30;99.90;;;;;;5035911;28;20469;-85
2023/12/12 00:29:31;;;;;;;0.43;0.40;;;7.30;99.90;;;;;;5035674;28;20431;-85
2023/12/12 00:31:57;;;;;;;3.70;0.80;;;7.30;99.90;;;;;;5035628;28;20486;-85
2023/12/12 00:34:24;;;;;;;1.67;0.60;;;7.30;99.90;;;;;;5036040;28;20435;-85
2023/12/12 00:36:52;;;;;;;0.70;0.70;;;7.30;99.90;;;;;;5035934;28;20463;-85
2023/12/12 00:39:19;;;;;;;0.63;0.60;;;7.40;99.90;;;;;;5035912;28;20441;-85
2023/12/12 00:41:46;;;;;;;0.70;0.60;;;7.40;99.90;;;;;;5036037;28;20807;-85
2023/12/12 00:44:13;;;;;;;1.97;0.50;;;7.40;99.90;;;;;;5035838;28;20550;-85
2023/12/12 00:46:40;;;;;;;1.47;0.40;;;7.50;99.90;;;;;;5036210;28;20459;-85
2023/12/12 00:49:06;;;;;;;0.40;0.40;;;7.50;99.90;;;;;;5035977;28;20454;-85
2023/12/12 00:51:33;;;;;;;0.90;0.50;;;7.50;99.90;;;;;;5035952;28;20443;-85
2023/12/12 00:54:01;;;;;;;0.77;0.40;;;7.50;99.90;;;;;;5035704;28;20451;-85
2023/12/12 00:56:28;;;;;;;1.50;0.50;;;7.50;99.90;;;;;;5035883;28;20467;-84
2023/12/12 00:58:55;;;;;;;0.43;0.30;;;7.50;99.90;;;;;;5035862;28;20783;-84
2023/12/12 01:01:21;;;;;;;0.30;0.30;;;7.50;99.90;;;;;;5035867;28;20446;-85
2023/12/12 01:03:48;;;;;;;1.57;0.40;;;7.50;99.90;;;;;;5035774;28;20932;-84
2023/12/12 01:06:23;;;;;;;0.87;0.57;;;7.50;99.90;;;;;;5038574;28;20490;-84
2023/12/12 01:08:50;;;;;;;0.40;0.40;;;7.50;99.90;;;;;;5036200;28;20450;-85
2023/12/12 01:11:18;;;;;;;0.50;0.40;;;7.60;99.90;;;;;;5035818;28;20808;-85
2023/12/12 01:13:45;;;;;;;0.60;0.50;;;7.60;99.90;;;;;;5035381;28;20482;-84
2023/12/12 01:16:12;;;;;;;3.50;0.40;;;7.60;99.90;;;;;;5034989;28;20454;-86
2023/12/12 01:18:39;;;;;;;0.57;0.57;;;7.60;99.90;;;;;;5034792;28;20447;-85
2023/12/12 01:21:06;;;;;;;2.40;0.40;;;7.60;99.90;;;;;;5035581;28;20443;-85
2023/12/12 01:23:47;;;;;;;0.43;0.40;;;7.60;99.90;;;;;;5035529;28;20450;-85
2023/12/12 01:26:14;;;;;;;0.40;0.40;;;7.60;99.90;;;;;;5035446;28;20478;-85
2023/12/12 01:28:42;;;;;;;0.73;0.33;;;7.60;99.90;;;;;;5035037;28;20447;-85
2023/12/12 01:31:09;;;;;;;0.80;0.40;;;7.60;99.90;;;;;;5035247;28;20450;-85
2023/12/12 01:33:36;;;;;;;0.60;0.50;;;7.60;99.90;;;;;;5035260;28;20846;-85
2023/12/12 01:36:02;;;;;;;5.17;0.70;;;7.50;99.90;;;;;;5035060;28;20443;-85
2023/12/12 01:38:30;;;;;;;0.50;0.40;;;7.50;99.90;;;;;;5035163;28;20474;-85
2023/12/12 01:40:57;;;;;;;0.50;0.50;;;7.40;99.90;;;;;;5048155;28;20438;-82
2023/12/12 01:43:24;;;;;;;0.87;0.57;;;7.40;99.90;;;;;;5042791;28;20458;-84
2023/12/12 01:45:54;;;;;;;0.67;0.50;;;7.40;99.90;;;;;;5034602;28;20966;-85
2023/12/12 01:48:21;;;;;;;0.50;0.50;;;7.30;99.90;;;;;;5035423;28;20431;-85
2023/12/12 01:50:49;;;;;;;0.70;0.70;;;7.20;99.90;;;;;;5035195;28;20457;-85
2023/12/12 01:53:18;;;;;;;0.40;0.40;;;7.20;99.90;;;;;;5034177;28;20493;-84
2023/12/12 01:55:45;;;;;;;1.03;0.40;;;7.20;99.90;;;;;;5034745;28;20537;-85
2023/12/12 01:58:13;;;;;;;0.70;0.30;;;7.20;99.90;;;;;;5034761;28;20450;-85
2023/12/12 02:00:40;;;;;;;3.07;0.83;;;7.10;99.90;;;;;;5035266;28;20443;-85
2023/12/12 02:03:08;;;;;;;0.50;0.50;;;7.10;99.90;;;;;;5034984;28;20447;-85
2023/12/12 02:05:38;;;;;;;0.60;0.37;;;7.00;99.90;;;;;;5034296;28;20450;-85
2023/12/12 02:08:05;;;;;;;0.50;0.50;;;7.00;99.90;;;;;;5033958;28;20479;-85
2023/12/12 02:10:31;;;;;;;0.60;0.50;;;7.00;99.90;;;;;;5033940;28;20426;-85
2023/12/12 02:12:58;;;;;;;0.50;0.50;;;7.00;99.90;;;;;;5033946;28;20482;-85
2023/12/12 02:15:25;;;;;;;0.77;0.40;;;7.00;99.90;;;;;;5033522;28;20931;-85
2023/12/12 02:17:52;;;;;;;0.40;0.40;;;7.00;99.90;;;;;;5033644;28;20455;-85
2023/12/12 02:20:20;;;;;;;0.50;0.50;;;7.00;99.90;;;;;;5034219;28;20430;-85
2023/12/12 02:22:48;;;;;;;1.70;0.43;;;7.00;99.90;;;;;;5033979;28;20932;-85
2023/12/12 02:25:18;;;;;;;0.40;0.40;;;7.00;99.90;;;;;;5034343;28;20457;-85
2023/12/12 02:27:44;;;;;;;12.43;0.70;;;7.00;99.90;;;;;;5034323;28;20458;-85
2023/12/12 02:30:14;;;;;;;0.70;0.60;;;7.00;99.90;;;;;;5034004;28;20806;-85
2023/12/12 02:32:41;;;;;;;1.50;0.40;;;7.00;99.90;;;;;;5037258;28;20482;-85
2023/12/12 02:35:08;;;;;;;0.67;0.30;;;6.90;99.90;;;;;;5037656;28;20458;-85
2023/12/12 02:37:35;;;;;;;0.40;0.30;;;6.90;99.90;;;;;;5037989;28;20473;-85
2023/12/12 02:40:03;;;;;;;0.30;0.30;;;6.90;99.90;;;;;;5037806;28;20814;-85
2023/12/12 02:42:30;;;;;;;0.90;0.60;;;6.90;99.90;;;;;;5037695;28;20927;-85
2023/12/12 02:44:56;;;;;;;1.53;0.30;;;6.90;99.90;;;;;;5037571;28;20447;-85
2023/12/12 02:47:23;;;;;;;0.43;0.30;;;6.90;99.90;;;;;;5037584;28;20470;-85
2023/12/12 02:49:50;;;;;;;0.47;0.40;;;6.90;99.90;;;;;;5037576;28;20790;-86
2023/12/12 02:52:17;;;;;;;0.50;0.50;;;6.90;99.90;;;;;;5037259;28;20475;-85
2023/12/12 02:54:44;;;;;;;0.40;0.40;;;6.90;99.90;;;;;;5037537;28;20453;-85
2023/12/12 02:57:12;;;;;;;3.07;0.50;;;6.90;99.90;;;;;;5037875;28;20458;-85
2023/12/12 02:59:38;;;;;;;0.60;0.30;;;6.90;99.90;;;;;;5038526;28;20433;-85
2023/12/12 03:02:05;;;;;;;3.00;0.57;;;6.90;99.90;;;;;;5037683;28;20438;-85
2023/12/12 03:04:32;;;;;;;0.30;0.30;;;7.00;99.90;;;;;;5037573;28;20447;-85
2023/12/12 03:06:58;;;;;;;0.77;0.40;;;7.00;99.90;;;;;;5037253;28;20486;-86
2023/12/12 03:09:25;;;;;;;0.93;0.67;;;7.10;99.90;;;;;;5037602;28;20442;-85
2023/12/12 03:11:53;;;;;;;1.00;0.50;;;7.10;99.90;;;;;;5037562;28;20958;-85
2023/12/12 03:14:27;;;;;;;0.40;0.40;;;7.10;99.90;;;;;;5037479;28;20482;-85
2023/12/12 03:16:54;;;;;;;0.67;0.40;;;7.10;99.90;;;;;;5037610;28;20466;-85
2023/12/12 03:19:21;;;;;;;1.13;0.50;;;7.10;99.90;;;;;;5037701;28;20440;-85
2023/12/12 03:21:48;;;;;;;0.77;0.40;;;7.10;99.90;;;;;;5037441;28;20455;-85
2023/12/12 03:24:14;;;;;;;0.47;0.37;;;7.00;99.90;;;;;;5037353;28;20446;-85
2023/12/12 03:26:41;;;;;;;0.40;0.33;;;7.00;99.90;;;;;;5037173;28;20455;-85
2023/12/12 03:29:08;;;;;;;1.60;0.77;;;7.00;99.90;;;;;;5037345;28;20809;-85
2023/12/12 03:31:36;;;;;;;0.40;0.30;;;7.00;99.90;;;;;;5037418;28;20435;-85
2023/12/12 03:34:03;;;;;;;0.30;0.30;;;7.10;99.90;;;;;;5037350;28;20478;-85
2023/12/12 03:36:29;;;;;;;5.30;0.50;;;7.00;99.90;;;;;;5038079;28;20463;-85
2023/12/12 03:38:56;;;;;;;1.53;1.43;;;7.00;99.90;;;;;;5037055;28;20454;-85
2023/12/12 03:41:23;;;;;;;3.03;0.60;;;7.00;99.90;;;;;;5037387;28;20473;-85
2023/12/12 03:43:50;;;;;;;0.67;0.40;;;7.00;99.90;;;;;;5036913;28;21016;-85
2023/12/12 03:46:18;;;;;;;0.60;0.60;;;6.90;99.90;;;;;;5037524;28;20987;-85
2023/12/12 03:48:46;;;;;;;0.40;0.30;;;6.80;99.90;;;;;;5037085;28;20446;-85
2023/12/12 03:51:13;;;;;;;0.50;0.40;;;6.80;99.90;;;;;;5058932;28;20495;-84
2023/12/12 03:53:40;;;;;;;0.40;0.40;;;6.80;99.90;;;;;;5039963;28;20845;-85
2023/12/12 03:56:08;;;;;;;0.30;0.30;;;6.80;99.90;;;;;;5038294;28;20463;-85
2023/12/12 03:58:35;;;;;;;0.40;0.40;;;6.70;99.90;;;;;;5037660;28;20450;-85
2023/12/12 04:01:01;;;;;;;0.90;0.47;;;6.80;99.90;;;;;;5037107;28;20936;-85
2023/12/12 04:03:28;;;;;;;1.40;0.47;;;6.80;99.90;;;;;;5036937;28;20450;-85
2023/12/12 04:05:56;;;;;;;0.40;0.40;;;6.70;99.90;;;;;;5036061;28;20450;-84
2023/12/12 04:08:23;;;;;;;0.40;0.40;;;6.70;99.90;;;;;;5035984;28;20424;-85
2023/12/12 04:10:49;;;;;;;0.73;0.30;;;6.70;99.90;;;;;;5036101;28;20451;-85
2023/12/12 04:13:16;;;;;;;0.50;0.40;;;6.70;99.90;;;;;;5036095;28;20850;-85
2023/12/12 04:15:43;;;;;;;0.30;0.30;;;6.70;99.90;;;;;;5035981;28;20454;-84
2023/12/12 04:18:10;;;;;;;4.13;0.40;;;6.70;99.90;;;;;;5035981;28;20478;-85
2023/12/12 04:20:36;;;;;;;1.93;0.37;;;6.70;99.90;;;;;;5036351;28;20447;-86
2023/12/12 04:23:05;;;;;;;0.40;0.40;;;6.70;99.90;;;;;;5035731;28;20813;-86
2023/12/12 04:25:32;;;;;;;2.37;0.33;;;6.60;99.90;;;;;;5035563;28;20442;-86
2023/12/12 04:27:59;;;;;;;0.50;0.30;;;6.60;99.90;;;;;;5035977;28;20478;-86
2023/12/12 04:30:26;;;;;;;1.53;0.70;;;6.60;99.90;;;;;;5035738;28;20447;-86
2023/12/12 04:32:53;;;;;;;0.30;0.30;;;6.70;99.90;;;;;;5035623;28;20483;-86
2023/12/12 04:35:20;;;;;;;0.80;0.40;;;6.70;99.90;;;;;;5035686;28;20815;-86
2023/12/12 04:37:46;;;;;;;0.40;0.40;;;6.70;99.90;;;;;;5035542;28;20477;-86
2023/12/12 04:40:15;;;;;;;0.40;0.30;;;6.80;99.90;;;;;;5035502;28;20446;-86
2023/12/12 04:42:42;;;;;;;0.40;0.40;;;6.80;99.90;;;;;;5035550;28;20500;-86
2023/12/12 04:45:10;;;;;;;4.00;0.40;;;6.80;99.90;;;;;;5035764;28;20500;-86
2023/12/12 04:47:35;;;;;;;5.17;0.43;;;6.80;99.90;;;;;;5035805;28;20474;-86
2023/12/12 04:50:03;;;;;;;0.40;0.40;;;6.90;99.90;;;;;;5035157;28;20427;-86
2023/12/12 04:52:30;;;;;;;1.23;0.40;;;6.80;99.90;;;;;;5035319;28;20212;-86
2023/12/12 04:54:59;;;;;;;0.97;0.50;;;6.90;99.90;;;;;;5034202;28;20948;-86
2023/12/12 04:57:27;;;;;;;0.40;0.40;;;6.90;99.90;;;;;;5036658;28;20474;-85
2023/12/12 04:59:53;;;;;;;0.40;0.40;;;6.90;99.90;;;;;;5035270;28;20465;-86
2023/12/12 05:02:21;;;;;;;0.40;0.30;;;7.00;99.90;;;;;;5039696;28;20443;-86
2023/12/12 05:04:47;;;;;;;1.43;0.60;;;6.90;99.90;;;;;;5041413;28;20441;-86
2023/12/12 05:07:16;;;;;;;1.10;0.50;;;7.00;99.90;;;;;;5038329;28;20485;-86
2023/12/12 05:09:43;;;;;;;0.40;0.40;;;7.00;99.90;;;;;;5037980;28;20447;-86
2023/12/12 05:12:10;;;;;;;0.40;0.40;;;7.10;99.90;;;;;;5038744;28;20454;-86
2023/12/12 05:14:38;;;;;;;0.30;0.30;;;6.90;99.90;;;;;;5038002;28;20494;-85
2023/12/12 05:17:05;;;;;;;0.60;0.33;;;6.90;99.90;;;;;;5037891;28;20461;-86
2023/12/12 05:19:32;;;;;;;1.37;0.30;;;6.90;99.90;;;;;;5037301;28;20458;-86
2023/12/12 05:21:59;;;;;;;0.40;0.40;;;6.90;99.90;;;;;;5037543;28;20457;-86
2023/12/12 05:24:25;;;;;;;0.80;0.40;;;6.90;99.90;;;;;;5036164;28;20450;-86
2023/12/12 05:26:52;;;;;;;0.90;0.63;;;6.90;99.90;;;;;;5035859;28;20474;-86
2023/12/12 05:29:19;;;;;;;0.50;0.43;;;6.90;99.90;;;;;;5035667;28;20439;-86
2023/12/12 05:31:47;;;;;;;0.50;0.50;;;7.00;99.90;;;;;;5035865;28;20816;-86
2023/12/12 05:34:14;;;;;;;0.70;0.50;;;7.00;99.90;;;;;;5035193;28;20482;-86
2023/12/12 05:36:41;;;;;;;1.93;0.33;;;7.00;99.90;;;;;;5034976;28;20991;-86
2023/12/12 05:39:09;;;;;;;0.30;0.30;;;7.00;99.90;;;;;;5035253;28;20497;-86
2023/12/12 05:41:36;;;;;;;5.03;0.70;;;7.00;99.90;;;;;;5035576;28;20451;-86
2023/12/12 05:44:05;;;;;;;0.40;0.40;;;7.00;99.90;;;;;;5035189;28;20518;-86
2023/12/12 05:46:32;;;;;;;0.40;0.40;;;7.00;99.90;;;;;;5034980;28;20466;-86
2023/12/12 05:49:00;;;;;;;0.40;0.30;;;7.10;99.90;;;;;;5034767;28;20442;-86
2023/12/12 05:51:27;;;;;;;0.30;0.30;;;7.20;99.90;;;;;;5034728;28;20443;-86
2023/12/12 05:53:54;;;;;;;0.50;0.43;;;7.20;99.90;;;;;;5034282;28;20487;-86
2023/12/12 05:56:20;;;;;;;0.50;0.40;;;7.20;99.90;;;;;;5034296;28;20471;-86
2023/12/12 05:58:47;;;;;;;1.70;0.40;;;7.20;99.90;;;;;;5037520;28;20443;-86
2023/12/12 06:01:17;;;;;;;0.33;0.30;;;7.30;99.90;;;;;;5052812;28;20447;-86
2023/12/12 06:03:44;;;;;;;0.77;0.77;;;7.30;99.90;;;;;;5034068;28;20439;-86
2023/12/12 06:06:12;;;;;;;2.83;0.60;;;7.40;99.90;;;;;;5033564;28;20517;-85
2023/12/12 06:08:39;;;;;;;5.50;0.60;;;7.40;99.90;;;;;;5033954;28;20437;-86
2023/12/12 06:11:07;;;;;;;0.77;0.50;;;7.40;99.90;;;;;;5033760;28;20462;-86
2023/12/12 06:13:33;;;;;;;0.83;0.40;;;7.50;99.90;;;;;;5033725;28;20849;-86
2023/12/12 06:16:00;;;;;;;0.50;0.50;;;7.50;99.90;;;;;;5033799;28;20454;-86
2023/12/12 06:18:27;;;;;;;0.50;0.40;;;7.50;99.90;;;;;;5033543;28;20441;-86
2023/12/12 06:20:54;;;;;;;1.70;0.43;;;7.50;99.90;;;;;;5033822;28;20454;-86
2023/12/12 06:23:22;;;;;;;0.37;0.37;;;7.50;99.90;;;;;;5033924;28;20450;-86
2023/12/12 06:25:49;;;;;;;0.30;0.30;;;7.50;99.90;;;;;;5033949;28;20446;-86
2023/12/12 06:28:16;;;;;;;2.00;0.47;;;7.50;99.90;;;;;;5033988;28;20441;-86
2023/12/12 06:30:42;;;;;;;0.40;0.40;;;7.50;99.90;;;;;;5034303;28;20451;-86
2023/12/12 06:33:09;;;;;;;0.30;0.30;;;7.50;99.90;;;;;;5034411;28;20927;-86
2023/12/12 06:35:36;;;;;;;0.60;0.50;;;7.50;99.90;;;;;;5033862;28;20450;-86
2023/12/12 06:38:04;;;;;;;0.50;0.50;;;7.50;99.90;;;;;;5033623;28;21002;-86
2023/12/12 06:40:32;;;;;;;1.07;0.57;;;7.50;99.90;;;;;;5034372;28;20477;-87
2023/12/12 06:42:58;;;;;;;0.63;0.50;;;7.60;99.90;;;;;;5033655;28;20452;-86
2023/12/12 06:45:25;;;;;;;2.30;0.33;;;7.60;99.90;;;;;;5035082;28;20438;-86
2023/12/12 06:47:52;;;;;;;0.40;0.40;;;7.60;99.90;;;;;;5040529;28;20463;-86
2023/12/12 06:50:19;;;;;;;0.50;0.40;;;7.60;99.90;;;;;;5044163;28;20442;-86
2023/12/12 06:52:45;;;;;;;0.30;0.30;;;7.60;99.90;;;;;;5038940;28;20449;-86
2023/12/12 06:55:12;;;;;;;0.40;0.40;;;7.60;99.90;;;;;;5034851;28;20482;-86
2023/12/12 06:57:40;;;;;;;5.80;0.50;;;7.70;99.90;;;;;;5035268;28;20467;-86
2023/12/12 07:00:08;;;;;;;1.13;0.80;;;7.70;99.90;;;;;;5035184;28;20936;-86
2023/12/12 07:02:35;;;;;;;0.50;0.50;;;7.60;99.90;;;;;;5034606;28;20454;-86
2023/12/12 07:05:04;;;;;;;2.00;0.60;;;7.70;99.90;;;;;;5034904;28;20453;-86
2023/12/12 07:07:32;;;;;;;0.40;0.40;;;7.70;99.90;;;;;;5033862;28;20483;-86
2023/12/12 07:09:59;;;;;;;1.00;0.50;;;7.70;99.90;;;;;;5034360;28;20457;-86
2023/12/12 07:12:25;;;;;;;0.60;0.60;;;7.70;99.90;;;;;;5034620;28;20449;-86
2023/12/12 07:14:53;;;;;;;0.77;0.77;;;7.70;99.90;;;;;;5033738;28;20478;-86
2023/12/12 07:17:19;;;;;;;1.53;0.60;;;7.70;99.90;;;;;;5035118;28;20215;-86
2023/12/12 07:19:47;;;;;;;0.80;0.80;;;7.80;99.90;;;;;;5037595;28;20481;-86
2023/12/12 07:22:14;;;;;;;0.50;0.50;;;7.80;99.90;;;;;;5037599;28;20449;-86
2023/12/12 07:24:41;;;;;;;0.60;0.40;;;7.80;99.90;;;;;;5037423;28;20443;-86
2023/12/12 07:27:07;;;;;;;1.57;0.70;;;7.80;99.90;;;;;;5037661;28;20485;-86
2023/12/12 07:29:34;;;;;;;0.40;0.40;;;7.80;99.90;;;;;;5037245;28;20806;-86
2023/12/12 07:32:02;;;;;;;0.40;0.30;;;7.80;99.90;;;;;;5037217;28;20454;-86
2023/12/12 07:34:29;;;;;;;1.60;0.40;;;7.80;99.90;;;;;;5037048;28;20486;-86
2023/12/12 07:36:56;;;;;;;2.40;0.70;;;7.90;99.90;;;;;;5037137;28;20470;-86
2023/12/12 07:39:25;;;;;;;0.47;0.47;;;7.90;99.90;;;;;;5037152;28;20538;-86
2023/12/12 07:41:52;;;;;;;0.63;0.40;;;7.90;99.90;;;;;;5036924;28;20446;-86
2023/12/12 07:44:19;;;;;;;0.43;0.43;;;7.90;99.90;;;;;;5036975;28;20446;-86
2023/12/12 07:46:45;;;;;;;0.87;0.50;;;7.90;99.90;;;;;;5038383;28;20469;-85
2023/12/12 07:49:13;;;;;;;0.50;0.43;;;7.90;99.90;;;;;;5038195;28;20450;-85
2023/12/12 07:51:40;;;;;;;0.50;0.40;;;7.90;99.90;;;;;;5038008;28;20427;-85
2023/12/12 07:54:07;;;;;;;0.30;0.30;;;7.90;99.90;;;;;;5037950;28;20482;-85
2023/12/12 07:56:34;;;;;;;0.50;0.50;;;7.90;99.90;;;;;;5037759;28;20467;-85
2023/12/12 07:59:01;;;;;;;0.50;0.50;;;7.90;99.90;;;;;;5037590;28;20820;-86
2023/12/12 08:01:29;;;;;;;0.50;0.50;;;7.90;99.90;;;;;;5037460;28;20442;-85
2023/12/12 08:03:56;;;;;;;0.40;0.40;;;7.90;99.90;;;;;;5038150;28;20489;-85
2023/12/12 08:06:24;;;;;;;0.37;0.37;;;8.00;99.90;;;;;;5038354;28;20482;-85
2023/12/12 08:08:51;;;;;;;0.70;0.70;;;8.00;99.90;;;;;;5053846;28;20422;-84
2023/12/12 08:11:18;;;;;;;0.73;0.50;;;8.10;99.90;;;;;;5044277;28;20427;-85
2023/12/12 08:13:44;;;;;;;0.40;0.30;;;8.10;99.90;;;;;;5036414;28;20434;-85
2023/12/12 08:16:11;;;;;;;0.30;0.30;;;8.10;99.90;;;;;;5036781;28;20466;-85
2023/12/12 08:18:38;;;;;;;0.37;0.33;;;8.10;99.90;;;;;;5036876;28;20454;-85
2023/12/12 08:21:06;;;;;;;0.47;0.47;;;8.10;99.90;;;;;;5037591;28;20435;-85
2023/12/12 08:23:37;;;;;;;0.40;0.40;;;8.20;99.90;;;;;;5036902;28;20435;-85
2023/12/12 08:26:05;;;;;;;0.43;0.43;;;8.20;99.90;;;;;;5036404;28;20553;-85
2023/12/12 08:28:31;;;;;;;0.73;0.60;;;8.20;99.90;;;;;;5035215;28;20856;-86
2023/12/12 08:30:58;;;;;;;0.40;0.40;;;8.20;99.90;;;;;;5035777;28;20963;-85
2023/12/12 08:33:25;;;;;;;1.93;0.43;;;8.20;99.90;;;;;;5037473;28;20446;-85
2023/12/12 08:35:52;;;;;;;0.97;0.50;;;8.20;99.90;;;;;;5036294;28;20489;-83
2023/12/12 08:38:19;;;;;;;7.07;1.13;;;8.20;99.90;;;;;;5037220;28;20447;-83
2023/12/12 08:40:47;;;;;;;1.90;0.50;;;8.30;99.90;;;;;;5037254;28;20454;-83
2023/12/12 08:43:13;;;;;;;0.50;0.50;;;8.30;99.90;;;;;;5039207;28;20459;-84
2023/12/12 08:45:40;;;;;;;3.23;0.90;;;8.30;99.90;;;;;;5037763;28;20443;-85
2023/12/12 08:48:08;;;;;;;0.70;0.50;;;8.30;99.90;;;;;;5037049;28;20466;-85
2023/12/12 08:50:35;;;;;;;0.77;0.70;;;8.40;99.90;;;;;;5040048;28;20465;-85
2023/12/12 08:53:03;;;;;;;0.87;0.83;;;8.40;99.90;;;;;;5038094;28;20434;-85
2023/12/12 08:55:29;;;;;;;0.50;0.50;;;8.40;99.90;;;;;;5040590;28;20483;-84
2023/12/12 08:57:58;;;;;;;0.40;0.40;;;8.40;99.90;;;;;;5041765;28;20466;-85
2023/12/12 09:00:25;;;;;;;0.90;0.70;;;8.40;99.90;;;;;;5041343;28;20447;-85
2023/12/12 09:02:51;;;;;;;0.63;0.63;;;8.50;99.90;;;;;;5041560;28;20454;-84
2023/12/12 09:05:18;;;;;;;0.50;0.50;;;8.50;99.90;;;;;;5040386;28;20438;-85
2023/12/12 09:07:45;;;;;;;0.90;0.77;;;8.60;99.90;;;;;;5040238;28;20532;-85
2023/12/12 09:10:12;;;;;;;0.40;0.40;;;8.50;99.90;;;;;;5041212;28;20473;-84
2023/12/12 09:12:38;;;;;;;0.60;0.57;;;8.60;99.90;;;;;;5041068;28;20961;-84
2023/12/12 09:15:07;;;;;;;0.40;0.37;;;8.60;99.90;;;;;;5040735;28;20483;-84
2023/12/12 09:17:34;;;;;;;0.87;0.63;;;8.60;99.90;;;;;;5040580;28;20498;-84
2023/12/12 09:20:01;;;;;;;0.77;0.40;;;8.60;99.90;;;;;;5041366;28;20447;-85
2023/12/12 09:22:28;;;;;;;0.50;0.50;;;8.60;99.90;;;;;;5040781;28;20443;-85
2023/12/12 09:24:55;;;;;;;1.70;0.43;;;8.60;99.90;;;;;;5040317;28;20438;-85
2023/12/12 09:27:22;;;;;;;0.40;0.40;;;8.60;99.90;;;;;;5038528;28;20466;-85
2023/12/12 09:29:48;;;;;;;0.60;0.50;;;8.60;99.90;;;;;;5037570;28;20450;-85
2023/12/12 09:32:16;;;;;;;0.83;0.50;;;8.50;99.90;;;;;;5035580;28;20450;-86
2023/12/12 09:34:43;;;;;;;1.03;1.03;;;8.40;99.90;;;;;;5035020;28;20489;-86
2023/12/12 09:37:10;;;;;;;1.60;1.00;;;8.20;99.90;;;;;;5034517;28;20518;-87
2023/12/12 09:39:37;;;;;;;0.50;0.40;;;8.00;99.90;;;;;;5033989;28;20435;-86
2023/12/12 09:42:12;;;;;;;1.23;1.17;;;7.90;99.90;;;;;;5034660;28;20833;-87
2023/12/12 09:44:43;;;;;;;1.13;0.40;;;7.80;99.90;;;;;;5034558;28;20454;-87
2023/12/12 09:47:11;;;;;;;0.60;0.50;;;7.70;99.90;;;;;;5034215;28;20467;-87
2023/12/12 09:49:40;;;;;;;1.10;0.60;;;8.00;99.90;;;;;;5034062;28;20447;-87
2023/12/12 09:52:08;;;;;;;0.80;0.80;;;7.60;99.90;;;;;;5034202;28;20454;-87
2023/12/12 09:54:37;;;;;;;1.03;0.50;;;7.60;99.90;;;;;;5034135;28;20489;-87
2023/12/12 09:57:05;;;;;;;1.00;0.63;;;7.50;99.90;;;;;;5033707;28;20482;-86
2023/12/12 09:59:32;;;;;;;0.50;0.50;;;7.50;99.90;;;;;;5034074;28;20457;-87
2023/12/12 10:01:59;;;;;;;1.07;0.47;;;7.50;99.90;;;;;;5033626;28;20435;-87
2023/12/12 10:04:27;;;;;;;0.50;0.50;;;7.50;99.90;;;;;;5033763;28;20439;-87
2023/12/12 10:06:59;;;;;;;0.40;0.40;;;7.50;99.90;;;;;;5033825;28;20548;-86
2023/12/12 10:09:26;;;;;;;1.47;0.80;;;7.70;99.90;;;;;;5033946;28;20484;-86
2023/12/12 10:11:53;;;;;;;0.50;0.40;;;7.40;99.90;;;;;;5035030;28;20450;-85
2023/12/12 10:14:38;;;;;;;0.50;0.50;;;7.30;99.90;;;;;;5034924;28;20442;-85
2023/12/12 10:17:06;;;;;;;0.40;0.40;;;7.30;99.90;;;;;;5034830;28;20469;-85
2023/12/12 10:19:33;;;;;;;0.40;0.30;;;7.30;99.90;;;;;;5049955;28;20454;-83
2023/12/12 10:22:04;;;;;;;2.70;0.43;;;7.30;99.90;;;;;;5036775;28;20455;-85
2023/12/12 10:24:31;;;;;;;0.60;0.30;;;7.40;99.90;;;;;;5034193;28;20775;-85
2023/12/12 10:26:58;;;;;;;0.70;0.60;;;7.40;99.90;;;;;;5034142;28;20815;-86
2023/12/12 10:29:25;;;;;;;1.10;0.60;;;7.40;99.90;;;;;;5034373;28;20482;-84
2023/12/12 10:31:53;;;;;;;0.60;0.50;;;7.40;99.90;;;;;;5033954;28;20431;-85
2023/12/12 10:34:23;;;;;;;0.60;0.30;;;7.50;99.90;;;;;;5034738;28;20443;-84
2023/12/12 10:36:50;;;;;;;2.70;0.40;;;7.50;99.90;;;;;;5034608;28;20470;-84
2023/12/12 10:39:18;;;;;;;0.87;0.50;;;7.60;99.90;;;;;;5034205;28;20443;-84
2023/12/12 10:41:52;;;;;;;0.37;0.37;;;7.60;99.90;;;;;;5033820;28;20439;-84
2023/12/12 10:44:25;;;;;;;0.53;0.43;;;7.70;99.90;;;;;;5034425;28;20431;-85
2023/12/12 10:47:20;;;;;;;0.40;0.30;;;7.70;99.90;;;;;;5034420;28;20974;-84
2023/12/12 10:49:58;;;;;;;0.90;0.50;;;7.80;99.90;;;;;;5034392;28;20442;-84
2023/12/12 10:52:26;;;;;;;1.77;0.50;;;8.10;99.90;;;;;;5035881;28;20427;-84
2023/12/12 10:55:07;;;;;;;0.70;0.70;;;7.90;99.90;;;;;;5038381;28;20478;-85
2023/12/12 10:57:47;;;;;;;0.53;0.37;;;8.00;99.90;;;;;;5052855;28;20474;-85
2023/12/12 11:00:23;;;;;;;1.00;0.50;;;7.90;99.90;;;;;;5037971;28;20525;-84
2023/12/12 11:02:49;;;;;;;0.47;0.40;;;8.10;99.90;;;;;;5039083;28;20421;-84
2023/12/12 11:05:16;;;;;;;0.80;0.60;;;8.10;99.90;;;;;;5038566;28;20932;-84
2023/12/12 11:07:46;;;;;;;0.40;0.30;;;8.20;99.90;;;;;;5039098;28;20474;-85
2023/12/12 11:10:15;;;;;;;0.80;0.60;;;8.30;99.90;;;;;;5040166;28;20429;-85
2023/12/12 11:12:45;;;;;;;2.73;0.50;;;8.30;99.90;;;;;;5039172;28;20446;-84
2023/12/12 11:15:14;;;;;;;2.97;0.90;;;8.40;99.90;;;;;;5038651;28;21010;-84
2023/12/12 11:17:41;;;;;;;0.33;0.30;;;8.40;99.90;;;;;;5041076;28;21002;-85
2023/12/12 11:20:12;;;;;;;0.73;0.40;;;8.40;99.90;;;;;;5039287;28;20489;-84
2023/12/12 11:22:39;;;;;;;1.20;0.33;;;8.50;99.90;;;;;;5039848;28;20484;-85
2023/12/12 11:25:08;;;;;;;0.40;0.40;;;8.50;99.90;;;;;;5036967;28;20442;-85
2023/12/12 11:27:39;;;;;;;0.30;0.30;;;8.50;99.90;;;;;;5038014;28;20558;-84
2023/12/12 11:30:07;;;;;;;0.63;0.60;;;8.50;99.90;;;;;;5037534;28;20982;-85
2023/12/12 11:32:35;;;;;;;2.30;0.90;;;8.60;99.90;;;;;;5036957;28;20456;-85
2023/12/12 11:35:06;;;;;;;1.20;0.50;;;8.70;99.90;;;;;;5036857;28;20474;-85
2023/12/12 11:37:43;;;;;;;0.30;0.30;;;8.70;99.90;;;;;;5036620;28;20477;-85
2023/12/12 11:40:11;;;;;;;0.50;0.40;;;8.70;99.90;;;;;;5038696;28;20837;-82
2023/12/12 11:42:43;;;;;;;1.03;0.40;;;8.70;99.90;;;;;;5040454;28;20446;-81
2023/12/12 11:45:10;;;;;;;0.83;0.73;;;8.70;99.90;;;;;;5039661;28;20927;-82
2023/12/12 11:47:37;;;;;;;0.40;0.30;;;8.70;99.90;;;;;;5039682;28;20465;-82
2023/12/12 11:50:32;;;;;;;0.50;0.30;;;8.80;99.90;;;;;;5039926;28;20450;-83
2023/12/12 11:53:01;;;;;;;0.40;0.40;;;8.80;99.90;;;;;;5039840;28;20443;-81
2023/12/12 11:55:31;;;;;;;0.70;0.60;;;8.80;99.90;;;;;;5039690;28;21083;-82
2023/12/12 11:58:01;;;;;;;0.40;0.30;;;8.70;99.90;;;;;;5039062;28;20476;-82
2023/12/12 12:00:32;;;;;;;0.70;0.50;;;8.70;99.90;;;;;;5041906;28;20932;-82
2023/12/12 12:02:58;;;;;;;0.50;0.50;;;8.70;99.90;;;;;;5044958;28;20436;-81
2023/12/12 12:05:25;;;;;;;0.63;0.40;;;8.70;99.90;;;;;;5045245;28;20422;-81
2023/12/12 12:07:52;;;;;;;0.40;0.40;;;8.70;99.90;;;;;;5045598;28;20541;-81
2023/12/12 12:10:19;;;;;;;0.50;0.40;;;8.70;99.90;;;;;;5044759;28;20430;-82
2023/12/12 12:12:53;;;;;;;0.40;0.40;;;8.70;99.90;;;;;;5044695;28;20446;-81
2023/12/12 12:15:21;;;;;;;0.53;0.53;;;8.80;99.90;;;;;;5044995;28;20494;-83
2023/12/12 12:17:48;;;;;;;0.70;0.30;;;8.80;99.90;;;;;;5044538;28;20483;-81
2023/12/12 12:20:15;;;;;;;0.87;0.37;;;8.80;99.90;;;;;;5046315;28;20541;-81
2023/12/12 12:22:42;;;;;;;0.40;0.30;;;8.80;99.90;;;;;;5044914;28;20443;-81
2023/12/12 12:25:09;;;;;;;1.87;0.43;;;8.80;99.90;;;;;;5045734;28;20481;-81
2023/12/12 12:27:49;;;;;;;0.40;0.40;;;8.80;99.90;;;;;;5045417;28;20481;-82
2023/12/12 12:30:18;;;;;;;0.40;0.30;;;8.80;99.90;;;;;;5045929;28;20840;-81
2023/12/12 12:32:59;;;;;;;0.87;0.87;;;8.90;99.90;;;;;;5052046;28;20632;-82
2023/12/12 12:35:26;;;;;;;0.40;0.40;;;8.90;99.90;;;;;;5040636;28;20473;-82
2023/12/12 12:37:53;;;;;;;0.40;0.37;;;8.90;99.90;;;;;;5041628;28;20462;-82
2023/12/12 12:40:33;;;;;;;0.40;0.30;;;9.00;99.90;;;;;;5042098;28;20889;-80
2023/12/12 12:43:00;;;;;;;0.33;0.30;;;9.00;99.90;;;;;;5044664;28;20446;-81
2023/12/12 12:45:27;;;;;;;2.83;0.60;;;8.90;99.90;;;;;;5045021;28;20447;-81
2023/12/12 12:47:54;;;;;;;4.57;0.57;;;9.00;99.90;;;;;;5045098;28;20833;-81
2023/12/12 12:50:22;;;;;;;0.40;0.40;;;9.00;99.90;;;;;;5046037;28;20455;-81
2023/12/12 12:52:49;;;;;;;0.87;0.50;;;9.10;99.90;;;;;;5045922;28;20451;-82
2023/12/12 12:55:16;;;;;;;0.50;0.30;;;9.10;99.90;;;;;;5045186;28;20431;-81
2023/12/12 12:57:44;;;;;;;0.37;0.37;;;9.10;99.90;;;;;;5043331;28;20462;-81
2023/12/12 13:00:13;;;;;;;0.50;0.40;;;9.20;99.90;;;;;;5043341;28;20453;-81